Pagrindinis puslapis
METAR-TAF:

METAR-TAF

Oro uostai :

Tunisas, Tunisas

platuma: 36-50N, ilguma: 010-14E, Aukštis: 3 m

Dabartinis oras

Ataskaita buvo paskelbta 24 minutes, ne 15:00 UTC
Vėjas 10 kt iš Vakarų/Pietvakarių, svyruoja nuo Pietvakarių ir Vakarų
Temperatūra 15°C
Drėgmė 55%
Slėgis 1014 hPa
Matomumas 10 km arba daugiau
Išsisklaidę debesys ne aukštis 2600 ft

METAR: DTTA 171500Z 25010KT 220V280 9999 SCT026 15/06 Q1014

Laikas: 16:24 (15:24 UTC)

Prognozė

Ataskaita buvo paskelbta 4 valandos ir 24 minutes, ne 11:00 UTC
Prognozė galioja nuo 17 metu 12 UTC su 18 metu 12 UTC
Vėjas 15 kt iš Pietvakarių
Matomumas: 8000 m
Išsisklaidę debesys ne aukštis 2600 ft
Tikimybė 40% :
Laikinai
nuo 17 metu 13 UTC su 17 metu 18 UTC
Vėjas 20 kt iš Vakarų/Pietvakarių su gūsio iki 33 kt
Matomumas: 4000 m
Išsisklaidę debesys ne aukštis 2300 ft, Liūtiniai kamuoliniai debesys.
perkūnija, lietus

TAF: DTTA 171100Z 1712/1812 23015KT 8000 SCT026 PROB40 TEMPO 1713/1718 24020G33KT 4000 -TSRA SCT023CB

Orai ataskaitas ir orų prognozės (METAR, TAF).

turimą stotys yra geltonos ir raudonos taškus žemėlapyje.

Perkelti pele per norėdami pamatyti stoties vardą.

Tada spustelėkite, norėdami matyti oro stebėjimo ir prognozės.

Norėdami pakeisti žemėlapį: spustelėkite ant žalios mygtukų su juodo kryžiaus žemyn,; žalią mygtuką su brūkšneliu, jei norite nutolinti; arba žalių rodyklių gretimoms žemėlapius.


METAR-TAF: